Erdem Tokoz

Jefe de ojeadores - Basaksehir
6 Dic 2028
Miércoles
Continuar

Personalidad

Adaptabilidad (12) Ambición (17) Controversia (18) Lealtad (3) Presión (18) Profesionalismo (13) Deportividad (15) Temperamento (16)

Perfil

Estilo de dirección Democrático
Licencia Continental B
Determinación 9
Gestión de personas 12
Motivación 8
Disciplina 10
Satisfacción laboral
95%
Fatiga
0%
Cargo Jefe de ojeadores
Salario 14.6K p/s
Contrato 14.03.2030

Rendimiento

Comportamiento Bueno
Efectividad del entrenamiento
33%
Desarrollo de jugadores
65%
Prevención de lesiones
35%
Implementación táctica
50%

Eventos recientes

Asistió a una reunión de captación ahora
Recomendó un objetivo de fichaje ahora
Recomendó un objetivo de fichaje ahora
Recomendó un objetivo de fichaje ahora
Recomendó un objetivo de fichaje ahora
Recomendó un objetivo de fichaje ahora
Recomendó un objetivo de fichaje 7d atrás
Evaluó a un jugador 7d atrás

Actualmente siguiendo

291
Jugador Club Estado Habilidad Confianza Observado Última observación Último voto
Joel Ezra Enyimba Activo 103 / 111 40% 5 05.12.2028 -
Jorge Salinas Racing Santander Activo 135 / 146 40% 2 05.12.2028 -
Luka Vušković Tottenham Activo 151 / 151 40% 2 05.12.2028 -
Azizbek To'lqinbekov Bunyodkor Activo 108 / 116 40% 3 01.12.2028 -
Harrison Armstrong Ipswich Town Activo 137 / 141 40% 3 01.12.2028 -
Rafael Mota Sporting CP Activo 120 / 120 40% 1 01.12.2028 -
Riquelme Thompson-Jones Accrington Stanley Activo 114 / 121 40% 6 27.11.2028 -
Honest Ahanor Atalanta Activo 146 / 151 40% 6 27.11.2028 -
Ayyoub Bouaddi Stoke City Activo 160 / 156 40% 2 26.11.2028 -
Olivier Leroux Mouscron Activo 106 / 109 40% 2 26.11.2028 -
Guy Noël Zohouri Le Havre AC Activo 132 / 131 40% 1 20.11.2028 -
Noah Markmann Esbjerg Activo 122 / 122 40% 2 19.11.2028 -
Luis Otávio Orlando City Activo 119 / 115 40% 3 19.11.2028 -
Norman Díaz Ankaragucu Activo 112 / 112 52% 1 / 1m 15.11.2028 -
Andrey Ivlev Nizhniy Novgorod Activo 103 / 117 40% 2 09.11.2028 -
Snyder Brunell Seattle Sounders Activo 96 / 112 40% 1 09.11.2028 -
Davinchi Getafe Activo 135 / 126 40% 1 07.11.2028 -
Marko Zebić Lucko Activo 112 / 135 40% 1 07.11.2028 -
Matias Siltanen Malmo FF Activo 114 / 123 40% 5 06.11.2028 -
Jack Shorrock Port Vale Activo 102 / 105 40% 1 06.11.2028 -
Andrija Bulatović Chamois Niortais Activo 129 / 138 40% 3 05.11.2028 -
Diego León Rotherham United Activo 131 / 133 40% 4 05.11.2028 -
Christos Mouzakitis Hull City Activo 140 / 151 40% 2 03.11.2028 -
Diego Cheuquepal Racing Activo 103 / 96 40% 1 03.11.2028 -
Tobías Ramírez River Plate Activo 117 / 137 40% 3 02.11.2028 -
Ronan Kpakio AC Milan Activo 132 / 134 40% 1 02.11.2028 -
Giovanni Leoni Lincoln City Activo 147 / 146 40% 6 01.11.2028 -
Musa Danjuma Umraniyespor Activo 98 / 110 40% 1 01.11.2028 -
Gideon Manaseh Ikorodu City Activo 105 / 88 40% 4 28.10.2028 -
José Neto Benfica Activo 128 / 127 40% 1 27.10.2028 -
Tyson Pearce St. Louis CITY SC Activo 95 / 99 40% 1 27.10.2028 -
João Simões Sporting CP Activo 143 / 142 40% 2 25.10.2028 -
Thulani Manyama Portland Timbers Activo 126 / 120 40% 3 25.10.2028 -
Trey Nyoni Rotherham United Activo 150 / 156 40% 4 23.10.2028 -
Miguel Figueiredo Benfica Activo 118 / 130 40% 1 22.10.2028 -
Peyton Miller New England Revolution Activo 103 / 117 40% 2 21.10.2028 -
Chris Rigg West Ham United Activo 143 / 150 40% 1 21.10.2028 -
Mateo Caballero Defensor Sporting Activo 111 / 111 40% 1 20.10.2028 -
Germán Barbas Racing Santander Activo 117 / 124 40% 1 18.10.2028 -
Eric Klein Real Salt Lake Activo 111 / 103 40% 1 18.10.2028 -
Pau Cubarsí Real Sociedad Activo 167 / 160 40% 1 17.10.2028 -
Muminhon Bahodirxonov Neftchi Activo 94 / 101 40% 1 14.10.2028 -
Celías Ingenthron Platense Activo 107 / 137 40% 1 13.10.2028 -
Máximo Magnoli Ferro Carril Oeste Activo 107 / 103 40% 1 10.10.2028 -
Veljko Milosavljević Bournemouth Activo 147 / 156 40% 1 10.10.2028 -
Harry Amass Manchester United Activo 140 / 145 40% 3 09.10.2028 -
Nikola Simić Partizan Activo 128 / 125 40% 2 09.10.2028 -
Sebastian Rodriguez Houston Dynamo Activo 120 / 123 40% 2 07.10.2028 -
Mauro Carrizo Atlético Tucumán Activo 118 / 111 40% 1 07.09.2028 -
Matías Magdaleno Estudiantes Activo 113 / 106 40% 1 28.08.2028 -
Tobías Ramírez River Plate Perdido 134 / 138 40% 1 28.08.2028 -
Nikola Simić Partizan Perdido 122 / 125 40% 1 21.08.2028 -
Basel Medhat Smouha Activo 85 / 106 40% 1 15.08.2028 -
Felipe Obradovich Ferro Carril Oeste Perdido 123 / 101 40% 1 15.08.2028 -
Augusto Bando Ascoli Activo 113 / 125 40% 1 14.08.2028 -
Agustín Medina Lanús Activo 106 / 113 40% 1 14.08.2028 -
Ayden Heaven Portsmouth Activo 145 / 159 40% 7 10.08.2028 -
Bernardo Lima Porto Activo 111 / 125 40% 1 09.08.2028 -
Tyler Fletcher Rotherham United Activo 124 / 129 40% 1 08.08.2028 -
Andrés Cuenca Como Activo 124 / 121 40% 1 07.08.2028 -
David Mella Deportivo La Coruña Activo 150 / 138 40% 1 06.08.2028 -
Oladapo Afolayan Blackburn Rovers Activo 127 / 128 40% 1 06.08.2028 -
Máximo Munarriz San Telmo Activo 86 / 96 40% 1 06.08.2028 -
Lamine Bèye Portimonense Activo 124 / 130 40% 1 06.08.2028 -
Mirza Ćatović VfB Stuttgart Activo 123 / 124 40% 1 05.08.2028 -
Omar El Hilali Espanyol Activo 157 / 160 40% 4 04.08.2028 -
Matteo Ruggeri Middlesbrough Activo 160 / 157 40% 2 04.08.2028 -
Max Bird Birmingham Activo 136 / 148 40% 2 02.08.2028 -
Jeremy Sarmiento Middlesbrough Activo 146 / 135 40% 1 02.08.2028 -
Marcus Tavernier Bournemouth Activo 157 / 159 40% 3 01.08.2028 -
Tyrese Campbell Sheffield United Activo 142 / 137 40% 2 01.08.2028 -
Bence Szakos Aris Activo 103 / 107 40% 1 01.08.2028 -
Uğurcan Yazğılı Konyaspor Perdido 119 / 130 62% 1 31.07.2028 -
Carlos Baleba Norwich City Activo 154 / 157 40% 1 31.07.2028 -
Reuell Walters Luton Town Activo 130 / 126 40% 1 31.07.2028 -
Jon Morcillo Almería Activo 148 / 142 40% 1 29.07.2028 -
Matěj Jurásek Doncaster Rovers Activo 125 / 124 40% 1 29.07.2028 -
Jayden Addai Bari Activo 137 / 137 40% 3 28.07.2028 -
Amankwah Forson Wycombe Wanderers Activo 135 / 132 40% 1 28.07.2028 -
Marcelo Allende Mamelodi Sundowns Activo 159 / 129 40% 2 25.07.2028 -
Nathan Broadhead Wrexham Activo 140 / 125 40% 2 25.07.2028 -
Lewis O'Brien Wrexham Activo 143 / 139 40% 2 24.07.2028 -
Nuno Santos SuperSport United Activo 129 / 124 40% 1 24.07.2028 -
Ignasi Vilarrasa Burgos Activo 124 / 127 40% 1 23.07.2028 -
Zeidane Inoussa Swansea City Activo 132 / 134 40% 1 23.07.2028 -
Cengiz Ünder Fenerbahce Activo 135 / 142 40% 1 21.07.2028 -
Ryoya Morishita Blackburn Rovers Activo 137 / 139 40% 1 21.07.2028 -
Nestory Irankunda Watford Activo 128 / 136 40% 1 20.07.2028 -
Calvin Ramsay Bristol Rovers Activo 133 / 130 40% 1 20.07.2028 -
Justo Giani Umraniyespor Activo 131 / 120 40% 1 19.07.2028 -
Harry Wilson Leeds United Activo 149 / 147 40% 1 18.07.2028 -
Angeliño AS Roma Activo 155 / 157 40% 1 18.07.2028 -
Samuel Ballet Antalyaspor Activo 130 / 118 62% 1 17.07.2028 Aprobar
Juan Cruz Leganés Activo 136 / 130 40% 1 17.07.2028 -
Dorgéles Néné Ankaragucu Activo 144 / 132 62% 1 03.07.2028 Aprobar
André Wolverhampton Activo 161 / 157 40% 2 12.06.2028 -
Fousseni Diabaté Kasimpasa Activo 113 / 122 62% 1 12.06.2028 Aprobar
Dwight McNeil Crystal Palace Activo 148 / 144 40% 1 12.06.2028 -
Milot Rashica Besiktas Activo 131 / 132 62% 1 07.06.2028 Aprobar
Iván Martín Racing Santander Activo 143 / 145 40% 1 29.05.2028 -
Lamare Bogarde Reading Activo 132 / 140 40% 1 29.05.2028 -
Ben Gannon Doak Charlton Athletic Activo 156 / 159 40% 7 27.05.2028 -
Yasin Ayari Middlesbrough Activo 145 / 150 40% 1 27.05.2028 -
Yaser Asprilla Girona Activo 155 / 154 40% 4 24.05.2028 -
Manuel Ugarte Leicester City Activo 152 / 147 40% 1 23.05.2028 -
Pablo Torre Mallorca Activo 149 / 157 40% 4 22.05.2028 -
Thijs Kraaijeveld USM Alger Activo 125 / 122 40% 3 22.05.2028 -
Fran García Betis Perdido 161 / 160 40% 2 21.05.2028 -
Salih Özcan Besiktas Activo 146 / 128 40% 3 20.05.2028 -
Borja Sainz Udinese Perdido 159 / 159 40% 1 20.05.2028 -
Couhaib Driouech Celta Activo 147 / 140 40% 1 20.05.2028 -
Xaver Schlager Nottingham Forest Perdido 162 / 159 40% 3 18.05.2028 -
Pau Víctor Braga Activo 154 / 152 40% 5 16.05.2028 -
Luka Sučić Andorra Activo 144 / 150 40% 2 16.05.2028 -
Eddie Nketiah Crystal Palace Activo 145 / 145 40% 1 15.05.2028 -
Ismaïla Sarr Crystal Palace Activo 150 / 145 40% 4 14.05.2028 -
Daniel Banjaqui Benfica Activo 120 / 123 40% 2 14.05.2028 -
Amine Adli Bournemouth Perdido 158 / 140 40% 1 14.05.2028 -
Makar Vysochenko Spartak Moscow Activo 97 / 99 40% 1 14.05.2028 -
Mohamed-Ali Cho Hull City Activo 139 / 142 40% 4 13.05.2028 -
Cheveyo Tsawa Club Brugge Activo 125 / 129 40% 1 13.05.2028 -
Geny Sporting CP Activo 156 / 147 40% 4 12.05.2028 -
Gaspar Gijón Activo 138 / 143 40% 1 12.05.2028 -
Archie Gray Southampton Activo 158 / 151 40% 5 11.05.2028 -
Noa Lang Napoli Activo 148 / 143 40% 2 11.05.2028 -
Andrés Martín Racing Santander Activo 149 / 140 40% 1 10.05.2028 -
Giacomo Raspadori Atalanta Activo 148 / 159 40% 1 09.05.2028 -
Jorthy Mokio ADO Den Haag Activo 133 / 128 40% 3 08.05.2028 -
Sander Berge Derby County Activo 150 / 148 40% 1 08.05.2028 -
Jofre Carreras Espanyol Activo 147 / 139 40% 1 06.05.2028 -
Aimar Osasuna Perdido 158 / 143 40% 1 05.05.2028 -
Héctor Fort Real Sociedad Activo 149 / 146 40% 2 03.05.2028 -
Jonathan Dubasin Osasuna Activo 153 / 143 40% 3 02.05.2028 -
Abel Ruiz Girona Activo 146 / 148 40% 2 30.04.2028 -
Kamaldeen Atiemo Wa All Stars Activo 93 / 119 40% 2 30.04.2028 -
Carlos Alcaraz Stoke City Activo 153 / 148 40% 1 29.04.2028 -
Mattéo Guendouzi Fenerbahce Activo 156 / 146 40% 4 27.04.2028 -
Adam Wharton Crystal Palace Activo 153 / 164 40% 1 27.04.2028 -
Óscar Mingueza Crystal Palace Activo 162 / 147 40% 1 27.04.2028 -
Lucas Høgsberg RC Strasbourg Activo 135 / 147 40% 2 24.04.2028 -
Jaidon Anthony Derby County Activo 135 / 130 40% 3 22.04.2028 -
Pote Sporting CP Activo 161 / 163 40% 4 22.04.2028 -
Kang-In Lee Villarreal Activo 172 / 151 40% 1 18.04.2028 -
Semih Kılıçsoy Besiktas Activo 126 / 129 40% 1 16.04.2028 -
David Larrubia Málaga Activo 134 / 137 40% 1 16.04.2028 -
Marcus Edwards Burnley Activo 153 / 148 40% 3 15.04.2028 -
Yann Gboho Toulouse FC Activo 147 / 138 40% 1 14.04.2028 -
Thiago Almada LOSC Lille Activo 148 / 143 40% 2 09.04.2028 -
Erick Pulga Bahia Activo 133 / 146 40% 1 09.04.2028 -
Hugo Duro Valencia Activo 154 / 153 40% 1 05.04.2028 -
Roberto Fernández Braga Activo 151 / 144 40% 1 04.04.2028 -
Chemsdine Talbi Sunderland Activo 146 / 152 40% 2 01.04.2028 -
Ez Abde Betis Activo 166 / 147 40% 1 30.03.2028 -
Nordi Mukiele Sunderland Activo 154 / 139 40% 5 28.03.2028 -
Benjamín Rollheiser Santos Activo 133 / 124 40% 2 28.03.2028 -
Arnau Martínez Valencia Activo 153 / 142 40% 1 28.03.2028 -
Samuel Edozie Southampton Activo 134 / 133 40% 1 26.03.2028 -
Shavy Babicka Crvena Zvezda Activo 119 / 114 40% 1 21.03.2028 -
Musa Barrow ES Setif Activo 129 / 137 40% 2 20.03.2028 -
Vitaly Janelt Derby County Activo 154 / 144 40% 1 18.03.2028 -
Christian Kouamé Atlético Mineiro Activo 142 / 140 40% 2 17.03.2028 -
Hákon Arnar Haraldsson LOSC Lille Activo 157 / 151 40% 1 17.03.2028 -
Malick Fofana Sunderland Activo 149 / 145 40% 1 17.03.2028 -
Jackson Muleka Konyaspor Activo 141 / 128 40% 2 14.03.2028 -
Jaden Philogene Wolverhampton Activo 142 / 147 40% 1 11.03.2028 -
Fábio Carvalho Brentford Activo 150 / 151 40% 1 10.03.2028 -
Yeremy Pino Crystal Palace Activo 153 / 158 40% 1 08.03.2028 -
Mikel Oyarzábal Real Sociedad Activo 166 / 165 40% 1 08.03.2028 -
Mikkel Damsgaard Brentford Activo 145 / 160 40% 1 07.03.2028 -
Aral Şimşir Porto Activo 131 / 137 40% 2 04.03.2028 -
Tyrhys Dolan Espanyol Activo 137 / 147 40% 1 04.03.2028 -
Cheikh Sabaly Vancouver Whitecaps Activo 123 / 141 40% 1 01.03.2028 -
Amine Harit Olympique de Marseille Activo 134 / 126 40% 2 29.02.2028 -
Nuno Moreira Vasco da Gama Activo 119 / 138 40% 3 26.02.2028 -
Victor Lind Hammarby Activo 144 / 127 40% 2 24.02.2028 -
Maurício Palmeiras Activo 148 / 120 40% 3 23.02.2028 -
Jhon Arias Palmeiras Activo 159 / 129 40% 2 23.02.2028 -
Pedro de la Vega Columbus Crew Activo 134 / 150 40% 1 21.02.2028 -
Iván Angulo Orlando City Activo 139 / 126 40% 1 21.02.2028 -
Martín Ojeda Orlando City Activo 127 / 129 40% 1 12.02.2028 -
Désiré Doué Stade Brestois Activo 167 / 170 40% 2 08.02.2028 -
Gabriel Pec Cruzeiro Activo 149 / 126 40% 1 08.02.2028 -
Allan Saint-Maximin Charlotte Football Club Activo 152 / 129 40% 1 07.02.2028 -
Josh Nichols Oldham Athletic Activo 120 / 124 40% 3 24.01.2028 -
Ali Yavuz Kol Kasimpasa Activo 125 / 117 58% 1 17.01.2028 -
Mao Hosoya Santos Activo 134 / 135 67% 1 01.01.2028 Aprobar
Alex Luna Instituto Activo 125 / 128 40% 1 31.12.2027 -
Fodé Sylla Sion Activo 129 / 135 40% 1 28.11.2027 -
Nicolas Sport Recife Activo 105 / 105 40% 1 28.11.2027 -
Hosea Michael Remo Stars Activo 82 / 87 40% 2 24.11.2027 -
Felipe Faúndez O'Higgins Activo 116 / 101 40% 2 24.11.2027 -
Esquerdinha Notts County Activo 122 / 128 40% 4 23.11.2027 -
Diego Vargas Universidad de Concepcion Activo 84 / 112 40% 3 22.11.2027 -
Josh Acheampong Everton Activo 143 / 149 40% 3 22.11.2027 -
Jonny Shore New York City Activo 115 / 91 40% 2 20.11.2027 -
Caleb Yirenkyi Coventry City Activo 142 / 156 40% 1 17.11.2027 -
Adrian Skogmar Malmo FF Activo 99 / 128 40% 1 10.11.2027 -
Jon Esenga IF Elfsborg Activo 87 / 112 40% 1 08.11.2027 -
Nahuel Leivas Montevideo City Torque Activo 111 / 102 40% 2 02.11.2027 -
Olaniyi Saheed Kwara United Activo 89 / 106 40% 2 01.11.2027 -
Daniel Idoko Ikorodu City Activo 92 / 102 40% 3 29.10.2027 -
Oscar Steinke Brånby Hammarby Activo 93 / 114 40% 1 19.10.2027 -
Tobias Moi Lillestrom Activo 92 / 109 40% 1 17.10.2027 -
Colin Guske Orlando City Activo 104 / 91 40% 2 16.10.2027 -
Yury Oyarzo Racing Activo 75 / 104 40% 1 09.10.2027 -
Victor Hernandez Santa Fe Activo 107 / 123 40% 1 06.10.2027 -
Alejandro Leiva Patronato Activo 98 / 95 40% 1 26.08.2027 -
Federico Matarán Giana Erminio Activo 105 / 103 40% 1 16.08.2027 -
Matthew Targett Hull City Activo 126 / 129 40% 1 06.07.2027 -
Alphadjo Cissé Lecce Activo 129 / 133 40% 1 03.06.2027 -
Riley Owen Stevenage Activo 100 / 115 40% 1 03.06.2027 -
Oliver Dovin Coventry City Activo 136 / 140 40% 7 01.06.2027 -
Sławomir Abramowicz Jagiellonia Activo 129 / 145 40% 4 01.06.2027 -
Ángel González Libertad Activo 120 / 123 40% 2 26.05.2027 -
James Trafford Leeds United Activo 153 / 153 40% 3 23.05.2027 -
Josh Keeley Luton Town Activo 120 / 125 40% 4 23.05.2027 -
Filip Marschall Stevenage Activo 110 / 107 40% 1 17.05.2027 -
Francesco D'Alterio Ternana Activo 100 / 116 40% 2 14.05.2027 -
William Rovida Pro Patria Activo 110 / 98 40% 1 14.05.2027 -
Marvin Keller Chelsea Activo 148 / 144 40% 3 10.05.2027 -
Franko Kolić Istra 1961 Activo 99 / 96 40% 4 06.05.2027 -
Cesare Galeotti Trapani Activo 107 / 106 40% 1 05.05.2027 -
Emre Bilgin Giresunspor Activo 113 / 111 40% 2 01.05.2027 -
Vladimir Nazarov Pakhtakor Activo 96 / 98 40% 1 30.04.2027 -
Zion Suzuki Aston Villa Activo 141 / 146 40% 2 26.04.2027 -
Radek Vítek Middlesbrough Activo 138 / 133 40% 4 23.04.2027 -
Szymon Weirauch Lechia Activo 113 / 124 40% 1 19.04.2027 -
Luka Baš Koper Activo 119 / 116 40% 3 18.04.2027 -
Sergio Barlocco Trento Activo 113 / 105 40% 3 17.04.2027 -
Leandro Brey Boca Juniors Activo 116 / 140 40% 2 12.04.2027 -
Bruno Antúnez Boston River Activo 129 / 106 40% 1 11.04.2027 -
Melker Ellborg Sunderland Activo 121 / 119 40% 4 08.04.2027 -
Matteo Rizzo Cosenza Activo 115 / 103 40% 1 31.03.2027 -
Mate Modric Zadar Activo 94 / 97 40% 2 29.03.2027 -
Shahriar Rezaeian Siah Jamegan Activo 94 / 119 40% 1 25.03.2027 -
Federico Losas Chacarita Juniors Activo 102 / 135 40% 1 15.03.2027 -
Heorhii Yermakov Metalist Activo 130 / 114 40% 1 08.03.2027 -
Deniz Ertaş Konyaspor Activo 132 / 113 40% 1 06.03.2027 -
Strahinja Manojlović Radnicki Nis Activo 99 / 125 40% 1 03.03.2027 -
Mohammad Hosseini Malavan Activo 127 / 120 40% 1 29.01.2027 -
Mevran Ablak Angusht Activo 67 / 74 40% 1 27.01.2027 -
Sampson Dweh Mallorca Activo 133 / 134 66% 1 01.01.2027 Aprobar
Enis Bardhi Konyaspor Activo 132 / 112 58% 1 01.01.2027 -
Mads Hermansen West Ham United Activo 137 / 149 40% 1 01.01.2027 -
Nathan Collins Brentford Activo 137 / 158 40% 1 29.12.2026 -
Quinten Timber Crystal Palace Activo 147 / 159 40% 2 27.12.2026 -
Dennis Cirkin Queens Park Rangers Activo 135 / 132 40% 1 27.12.2026 -
Dara O'Shea Ipswich Town Activo 138 / 124 40% 2 25.12.2026 -
Jacob Greaves Ipswich Town Activo 143 / 128 40% 1 23.12.2026 -
Tomáš Souček West Ham United Activo 136 / 131 40% 1 22.12.2026 -
Reinildo Sunderland Activo 138 / 141 40% 3 21.12.2026 -
James Garner Everton Activo 156 / 137 40% 1 21.12.2026 -
Lucas Torreira Galatasaray Activo 156 / 146 40% 2 20.12.2026 -
Igor Burnley Activo 134 / 135 40% 1 20.12.2026 -
Alex Scott Bournemouth Activo 146 / 156 40% 1 18.12.2026 -
Gabriel Sara Galatasaray Activo 144 / 152 40% 3 17.12.2026 -
Wilfried Singo Galatasaray Activo 146 / 144 40% 2 17.12.2026 -
Milan Škriniar Fenerbahce Activo 152 / 163 40% 3 16.12.2026 -
Aaron Hickey Brentford Activo 135 / 137 40% 1 14.12.2026 -
Brooke Norton-Cuffy Hull City Activo 137 / 139 40% 1 14.12.2026 -
Emmanuel Agbadou Besiktas Activo 142 / 146 40% 1 12.12.2026 -
Harry Clarke Preston Activo 121 / 136 40% 1 10.12.2026 -
Welington Southampton Activo 138 / 124 40% 1 09.12.2026 -
Yehor Yarmoliuk Brentford Activo 150 / 140 40% 1 03.12.2026 -
Max Johnston Derby County Activo 132 / 133 40% 2 02.12.2026 -
Florentino Luís Ipswich Town Activo 150 / 147 40% 2 30.11.2026 -
Toby Collyer West Bromwich Albion Activo 134 / 142 40% 1 30.11.2026 -
Jordan Lotomba Bloemfontein Celtic Activo 140 / 137 40% 1 29.11.2026 -
Pedro Porro Tottenham Activo 154 / 141 40% 2 20.11.2026 -
Shea Charles Southampton Activo 131 / 124 40% 1 20.11.2026 -
Leon Goretzka Aston Villa Activo 160 / 144 40% 1 14.11.2026 -
Ousmane Diomande Nottingham Forest Activo 159 / 147 40% 1 10.11.2026 -
Paik Seung-Ho Birmingham Activo 122 / 128 40% 1 09.11.2026 -
Tariq Lamptey Queens Park Rangers Activo 134 / 138 40% 1 09.11.2026 -
Hidemasa Morita Hull City Activo 141 / 153 40% 1 08.11.2026 -
Jarrad Branthwaite Everton Activo 161 / 158 40% 1 07.11.2026 -
Joe Gomez Liverpool Activo 155 / 138 40% 1 07.11.2026 -
Maestro Alanyaspor Activo 125 / 132 40% 1 02.11.2026 -
Nicolás Romero Minnesota United FC Activo 115 / 142 40% 1 24.10.2026 -
Agustín Bouzat Houston Dynamo Activo 128 / 112 40% 2 23.10.2026 -
Davinson Sánchez Galatasaray Activo 159 / 140 40% 2 23.10.2026 -
Nathan Aké Fenerbahce Activo 153 / 142 40% 4 22.10.2026 -
Facundo Miño Deportivo Riestra Activo 105 / 104 40% 1 21.10.2026 -
Gustavo Mantuan Zenit Activo 116 / 140 40% 1 21.10.2026 -
Morgan Billiat SuperSport United Activo 109 / 126 40% 1 16.10.2026 -
Marcel Hartel St. Louis CITY SC Activo 115 / 138 40% 1 14.10.2026 -
Ferland Mendy Real Madrid Activo 155 / 151 40% 1 13.10.2026 -
Óscar Valentín FC Copenhagen Activo 130 / 126 40% 1 09.10.2026 -
Japhet Sery Larsen Philadelphia Union Activo 140 / 141 40% 1 08.10.2026 -
Marcelo Saracchi Houston Dynamo Activo 123 / 123 40% 1 09.09.2026 -
Bünyamin Balcı Antalyaspor Activo 123 / 109 55% 1 31.08.2026 -